createdAt,value
2022-10-18T00:00:41.928Z,0.00
2022-10-18T00:01:41.957Z,0.00
2022-10-18T00:02:41.931Z,0.00
2022-10-18T00:04:41.901Z,0.00
2022-10-18T00:05:41.886Z,0.00
2022-10-18T00:06:43.550Z,0.00
2022-10-18T00:07:41.871Z,0.00
2022-10-18T00:08:41.857Z,0.00
2022-10-18T00:09:41.879Z,0.00
2022-10-18T00:10:41.821Z,0.00
2022-10-18T00:11:41.807Z,0.00
2022-10-18T00:12:41.863Z,0.00
2022-10-18T00:13:41.793Z,0.00
2022-10-18T00:14:41.797Z,0.00
2022-10-18T00:15:41.786Z,0.00
2022-10-18T00:16:41.762Z,0.00
2022-10-18T00:17:41.756Z,0.00
2022-10-18T00:18:41.740Z,0.00
2022-10-18T00:19:41.731Z,0.00
2022-10-18T00:20:41.746Z,0.00
2022-10-18T00:21:41.778Z,0.00
2022-10-18T00:22:41.697Z,0.00
2022-10-18T00:23:41.689Z,0.00
2022-10-18T00:24:41.675Z,0.00
2022-10-18T00:25:41.692Z,0.00
2022-10-18T00:26:41.660Z,0.00
2022-10-18T00:27:41.632Z,0.00
2022-10-18T00:28:41.675Z,0.00
2022-10-18T00:29:41.623Z,0.00
2022-10-18T00:30:41.728Z,0.00
2022-10-18T00:31:41.600Z,0.00
2022-10-18T00:32:41.590Z,0.00
2022-10-18T00:33:41.577Z,0.00
2022-10-18T00:34:41.571Z,0.00
2022-10-18T00:35:41.585Z,0.00
2022-10-18T00:36:41.571Z,0.00
2022-10-18T00:37:41.549Z,0.00
2022-10-18T00:38:41.532Z,0.00
2022-10-18T00:39:41.591Z,0.00
2022-10-18T00:40:41.503Z,0.00
2022-10-18T00:41:41.515Z,0.00
2022-10-18T00:42:41.480Z,0.00
2022-10-18T00:43:41.486Z,0.00
2022-10-18T00:44:41.465Z,0.00
2022-10-18T00:45:41.452Z,0.00
2022-10-18T00:46:41.497Z,0.00
2022-10-18T00:47:41.432Z,0.00
2022-10-18T00:48:41.450Z,0.00
2022-10-18T00:49:41.434Z,0.00
2022-10-18T00:50:41.383Z,0.00
2022-10-18T00:51:41.409Z,0.00
2022-10-18T00:52:41.373Z,0.00
2022-10-18T00:53:41.393Z,0.00
2022-10-18T00:54:41.351Z,0.00
2022-10-18T00:55:41.334Z,0.00
2022-10-18T00:56:41.333Z,0.00
2022-10-18T00:57:41.391Z,0.00
2022-10-18T00:58:41.314Z,0.00
2022-10-18T00:59:41.296Z,0.00
2022-10-18T01:00:41.288Z,0.00
2022-10-18T01:01:41.338Z,0.00
2022-10-18T01:02:41.305Z,0.00
2022-10-18T01:03:41.253Z,0.00
2022-10-18T01:04:41.244Z,0.00
2022-10-18T01:05:41.227Z,0.00
2022-10-18T01:06:41.212Z,0.00
2022-10-18T01:07:41.203Z,0.00
2022-10-18T01:08:41.234Z,0.00
2022-10-18T01:09:41.194Z,0.00
2022-10-18T01:10:41.174Z,0.00
2022-10-18T01:11:41.203Z,0.00
2022-10-18T01:12:41.159Z,0.00
2022-10-18T01:13:41.139Z,0.00
2022-10-18T01:14:41.161Z,0.00
2022-10-18T01:15:41.156Z,0.00
2022-10-18T01:16:41.119Z,0.00
2022-10-18T01:17:41.105Z,0.00
2022-10-18T01:18:41.479Z,0.00
2022-10-18T01:19:41.080Z,0.00
2022-10-18T01:20:41.099Z,0.00
2022-10-18T01:21:41.055Z,0.00
2022-10-18T01:22:41.075Z,0.00
2022-10-18T01:23:41.038Z,0.00
2022-10-18T01:24:41.053Z,0.00
2022-10-18T01:25:41.018Z,0.00
2022-10-18T01:26:41.008Z,0.00
2022-10-18T01:27:41.016Z,0.00
2022-10-18T01:28:41.016Z,0.00
2022-10-18T01:29:40.964Z,0.00
2022-10-18T01:30:40.963Z,0.00
2022-10-18T01:31:40.943Z,0.00
2022-10-18T01:32:40.963Z,0.00
2022-10-18T01:33:40.927Z,0.00
2022-10-18T01:34:40.937Z,0.00
2022-10-18T01:35:40.903Z,0.00
2022-10-18T01:36:40.891Z,0.00
2022-10-18T01:37:40.919Z,0.00
2022-10-18T01:38:40.907Z,0.00
2022-10-18T01:39:40.862Z,0.00
2022-10-18T01:40:40.847Z,0.00
2022-10-18T01:41:40.864Z,0.00
2022-10-18T01:42:40.837Z,0.00
2022-10-18T01:43:40.848Z,0.00
2022-10-18T01:44:40.831Z,0.00
2022-10-18T01:45:40.801Z,0.00
2022-10-18T01:46:40.787Z,0.00
2022-10-18T01:47:40.770Z,0.00
2022-10-18T01:48:40.788Z,0.00
2022-10-18T01:49:40.758Z,0.00
2022-10-18T01:50:40.762Z,0.00
2022-10-18T01:51:40.776Z,0.00
2022-10-18T01:52:40.726Z,0.00
2022-10-18T01:53:40.749Z,0.00
2022-10-18T01:54:40.706Z,0.00
2022-10-18T01:55:40.728Z,0.00
2022-10-18T01:56:40.691Z,0.00
2022-10-18T01:57:40.671Z,0.00
2022-10-18T01:58:40.655Z,0.00
2022-10-18T01:59:40.642Z,0.00
2022-10-18T02:00:40.666Z,0.00
2022-10-18T02:01:40.657Z,0.00
2022-10-18T02:02:40.617Z,0.00
2022-10-18T02:03:40.606Z,0.00
2022-10-18T02:04:40.589Z,0.00
2022-10-18T02:05:40.585Z,0.00
2022-10-18T02:06:40.639Z,0.00
2022-10-18T02:07:40.559Z,0.00
2022-10-18T02:08:40.555Z,0.00
2022-10-18T02:09:40.536Z,0.00
2022-10-18T02:10:40.528Z,0.00
2022-10-18T02:11:40.524Z,0.00
2022-10-18T02:12:40.536Z,0.00
2022-10-18T02:13:40.531Z,0.00
2022-10-18T02:14:40.482Z,0.00
2022-10-18T02:15:40.479Z,0.00
2022-10-18T02:16:40.493Z,0.00
2022-10-18T02:17:40.447Z,0.00
2022-10-18T02:18:40.442Z,0.00
2022-10-18T02:19:40.434Z,0.00
2022-10-18T02:20:40.416Z,0.00
2022-10-18T02:21:40.405Z,0.00
2022-10-18T02:22:40.440Z,0.00
2022-10-18T02:23:40.385Z,0.00
2022-10-18T02:24:40.379Z,0.00
2022-10-18T02:25:40.365Z,0.00
2022-10-18T02:26:40.350Z,0.00
2022-10-18T02:27:40.364Z,0.00
2022-10-18T02:28:40.333Z,0.00
2022-10-18T02:29:40.328Z,0.00
2022-10-18T02:30:40.316Z,0.00
2022-10-18T02:31:40.305Z,0.00
2022-10-18T02:32:40.323Z,0.00
2022-10-18T02:33:40.306Z,0.00
2022-10-18T02:34:40.262Z,0.00
2022-10-18T02:35:40.253Z,0.00
2022-10-18T02:36:40.250Z,0.00
2022-10-18T02:37:40.234Z,0.00
2022-10-18T02:38:40.275Z,0.00
2022-10-18T02:39:40.218Z,0.00
2022-10-18T02:40:40.201Z,0.00
2022-10-18T02:41:40.189Z,0.00
2022-10-18T02:42:40.189Z,0.00
2022-10-18T02:43:40.207Z,0.00
2022-10-18T02:44:40.166Z,0.00
2022-10-18T02:45:40.147Z,0.00
2022-10-18T02:46:40.145Z,0.00
2022-10-18T02:47:40.134Z,0.00
2022-10-18T02:48:40.145Z,0.00
2022-10-18T02:49:40.102Z,0.00
2022-10-18T02:50:40.089Z,0.00
2022-10-18T02:51:40.085Z,0.00
2022-10-18T02:52:40.075Z,0.00
2022-10-18T02:53:40.090Z,0.00
2022-10-18T02:54:40.077Z,0.00
2022-10-18T02:55:40.077Z,0.00
2022-10-18T02:56:40.043Z,0.00
2022-10-18T02:57:40.021Z,0.00
2022-10-18T02:58:40.008Z,0.00
2022-10-18T02:59:40.012Z,0.00
2022-10-18T03:00:39.985Z,0.00
2022-10-18T03:01:40.101Z,0.00
2022-10-18T03:02:39.971Z,0.00
2022-10-18T03:03:39.984Z,0.00
2022-10-18T03:04:39.952Z,0.00
2022-10-18T03:05:39.969Z,0.00
2022-10-18T03:06:39.928Z,0.00
2022-10-18T03:07:39.917Z,0.00
2022-10-18T03:08:39.898Z,0.00
2022-10-18T03:09:39.901Z,0.00
2022-10-18T03:10:39.940Z,0.00
2022-10-18T03:11:39.877Z,0.00
2022-10-18T03:12:39.890Z,0.00
2022-10-18T03:13:39.845Z,0.00
2022-10-18T03:14:39.838Z,0.00
2022-10-18T03:15:39.830Z,0.00
2022-10-18T03:16:39.850Z,0.00
2022-10-18T03:17:39.802Z,0.00
2022-10-18T03:18:39.797Z,0.00
2022-10-18T03:19:39.787Z,0.00
2022-10-18T03:20:39.767Z,0.00
2022-10-18T03:21:39.794Z,0.00
2022-10-18T03:22:39.754Z,0.00
2022-10-18T03:23:39.739Z,0.00
2022-10-18T03:24:39.725Z,0.00
2022-10-18T03:25:41.695Z,0.00
2022-10-18T03:26:39.731Z,0.00
2022-10-18T03:27:39.726Z,0.00
2022-10-18T03:28:39.788Z,0.00
2022-10-18T03:29:39.671Z,0.00
2022-10-18T03:30:39.668Z,0.00
2022-10-18T03:31:39.656Z,0.00
2022-10-18T03:32:39.675Z,0.00
2022-10-18T03:33:39.628Z,0.00
2022-10-18T03:34:39.654Z,0.00
2022-10-18T03:35:39.617Z,0.00
2022-10-18T03:36:39.603Z,0.00
2022-10-18T03:37:39.591Z,0.00
2022-10-18T03:38:39.578Z,0.00
2022-10-18T03:39:39.561Z,0.00
2022-10-18T03:40:39.579Z,0.00
2022-10-18T03:41:39.542Z,0.00
2022-10-18T03:42:39.557Z,0.00
2022-10-18T03:43:39.530Z,0.00
2022-10-18T03:44:39.517Z,0.00
2022-10-18T03:45:39.532Z,0.00
2022-10-18T03:46:39.494Z,0.00
2022-10-18T03:47:39.499Z,0.00
2022-10-18T03:48:39.473Z,0.00
2022-10-18T03:49:39.458Z,0.00
2022-10-18T03:50:39.446Z,0.00
2022-10-18T03:51:39.553Z,0.00
2022-10-18T03:52:39.421Z,0.00
2022-10-18T03:53:39.446Z,0.00
2022-10-18T03:54:39.408Z,0.00
2022-10-18T03:55:39.432Z,0.00
2022-10-18T03:56:39.383Z,0.00
2022-10-18T03:57:39.378Z,0.00
2022-10-18T03:58:39.379Z,0.00
2022-10-18T03:59:39.375Z,0.00
2022-10-18T04:00:39.339Z,0.00
2022-10-18T04:01:39.443Z,0.00
2022-10-18T04:02:39.323Z,0.00
2022-10-18T04:03:39.314Z,0.00
2022-10-18T04:04:39.331Z,0.00
2022-10-18T04:05:39.292Z,0.00
2022-10-18T04:06:39.272Z,0.00
2022-10-18T04:07:39.275Z,0.00
2022-10-18T04:08:39.275Z,0.00
2022-10-18T04:09:39.241Z,0.00
2022-10-18T04:10:39.227Z,0.00
2022-10-18T04:11:39.225Z,0.00
2022-10-18T04:12:39.208Z,0.00
2022-10-18T04:13:39.224Z,0.00
2022-10-18T04:14:39.212Z,0.00
2022-10-18T04:15:39.177Z,0.00
2022-10-18T04:16:39.199Z,0.00
2022-10-18T04:17:39.169Z,0.00
2022-10-18T04:18:39.149Z,0.00
2022-10-18T04:19:39.130Z,0.00
2022-10-18T04:20:39.154Z,0.00
2022-10-18T04:21:39.112Z,0.00
2022-10-18T04:22:39.119Z,0.00
2022-10-18T04:23:39.112Z,0.00
2022-10-18T04:24:39.111Z,0.00
2022-10-18T04:25:39.132Z,0.00
2022-10-18T04:26:39.051Z,0.00
2022-10-18T04:27:39.096Z,0.00
2022-10-18T04:28:39.087Z,0.00
2022-10-18T04:29:39.037Z,0.00
2022-10-18T04:30:39.060Z,0.00
2022-10-18T04:31:39.010Z,0.00
2022-10-18T04:32:38.991Z,0.00
2022-10-18T04:33:38.989Z,0.00
2022-10-18T04:34:39.093Z,0.00
2022-10-18T04:35:38.959Z,0.00
2022-10-18T04:36:38.959Z,0.00
2022-10-18T04:37:38.969Z,0.00
2022-10-18T04:38:38.929Z,0.00
2022-10-18T04:39:38.931Z,0.00
2022-10-18T04:40:38.953Z,0.00
2022-10-18T04:41:38.903Z,0.00
2022-10-18T04:42:38.888Z,0.00
2022-10-18T04:43:38.909Z,0.00
2022-10-18T04:44:38.898Z,0.00
2022-10-18T04:45:38.860Z,0.00
2022-10-18T04:46:38.859Z,0.00
2022-10-18T04:47:38.862Z,0.00
2022-10-18T04:48:38.825Z,0.00
2022-10-18T04:49:38.852Z,0.00
2022-10-18T04:50:38.803Z,0.00
2022-10-18T04:51:38.804Z,0.00
2022-10-18T04:52:38.882Z,0.00
2022-10-18T04:53:38.771Z,0.00
2022-10-18T04:54:38.761Z,0.00
2022-10-18T04:55:38.788Z,0.00
2022-10-18T04:56:38.743Z,0.00
2022-10-18T04:57:38.723Z,0.00
2022-10-18T04:58:38.722Z,0.00
2022-10-18T04:59:38.704Z,0.00
2022-10-18T05:00:40.019Z,0.00
2022-10-18T05:01:38.746Z,0.00
2022-10-18T05:02:38.687Z,0.00
2022-10-18T05:03:38.667Z,0.00
2022-10-18T05:04:38.648Z,0.00
2022-10-18T05:06:00.279Z,0.00
2022-10-18T05:06:39.660Z,0.00
2022-10-18T05:07:38.613Z,0.00
2022-10-18T05:08:38.614Z,0.00
2022-10-18T05:09:38.594Z,0.00
2022-10-18T05:10:38.590Z,0.00
2022-10-18T05:11:38.611Z,0.00
2022-10-18T05:12:38.563Z,0.00
2022-10-18T05:13:38.553Z,0.00
2022-10-18T05:14:38.550Z,0.00
2022-10-18T05:15:38.531Z,0.00
2022-10-18T05:16:38.556Z,0.00
2022-10-18T05:17:47.263Z,0.00
2022-10-18T05:18:38.504Z,0.00
2022-10-18T05:19:38.499Z,0.00
2022-10-18T05:20:38.481Z,0.00
2022-10-18T05:21:38.472Z,0.00
2022-10-18T05:22:38.457Z,0.00
2022-10-18T05:23:38.508Z,4.00
2022-10-18T05:24:38.445Z,4.00
2022-10-18T05:25:38.435Z,4.00
2022-10-18T05:26:38.418Z,4.00
2022-10-18T05:27:38.408Z,8.00
2022-10-18T05:28:40.023Z,4.00
2022-10-18T05:29:38.411Z,8.00
2022-10-18T05:30:38.375Z,8.00
2022-10-18T05:31:38.360Z,8.00
2022-10-18T05:32:38.794Z,12.00
2022-10-18T05:33:38.389Z,12.00
2022-10-18T05:34:38.326Z,16.00
2022-10-18T05:35:38.367Z,20.00
2022-10-18T05:36:38.302Z,20.00
2022-10-18T05:37:38.320Z,20.00
2022-10-18T05:38:38.433Z,20.00
2022-10-18T05:39:38.278Z,24.00
2022-10-18T05:40:38.320Z,24.00
2022-10-18T05:41:38.287Z,24.00
2022-10-18T05:42:38.245Z,24.00
2022-10-18T05:43:38.234Z,24.00
2022-10-18T05:44:38.215Z,28.00
2022-10-18T05:45:38.206Z,28.00
2022-10-18T05:46:38.195Z,32.00
2022-10-18T05:47:38.225Z,32.00
2022-10-18T05:48:38.202Z,32.00
2022-10-18T05:49:38.210Z,32.00
2022-10-18T05:50:40.296Z,32.00
2022-10-18T05:51:38.168Z,32.00
2022-10-18T05:52:38.133Z,36.00
2022-10-18T05:53:38.498Z,40.00
2022-10-18T05:54:38.166Z,40.00
2022-10-18T05:55:38.105Z,44.00
2022-10-18T05:57:38.081Z,52.00
2022-10-18T05:58:38.067Z,56.00
2022-10-18T05:59:38.059Z,56.00
2022-10-18T06:00:38.077Z,52.00
2022-10-18T06:01:38.035Z,52.00
2022-10-18T06:02:38.088Z,52.00
2022-10-18T06:03:38.076Z,52.00
2022-10-18T06:04:38.046Z,52.00
2022-10-18T06:06:37.986Z,56.00
2022-10-18T06:07:38.014Z,56.00
2022-10-18T06:08:37.957Z,56.00
2022-10-18T06:09:37.947Z,60.00
2022-10-18T06:10:37.943Z,64.00
2022-10-18T06:11:37.921Z,68.00
2022-10-18T06:12:37.974Z,68.00
2022-10-18T06:13:37.901Z,76.00
2022-10-18T06:14:37.890Z,84.00
2022-10-18T06:15:37.880Z,92.00
2022-10-18T06:17:38.450Z,100.00
2022-10-18T06:18:37.877Z,104.00
2022-10-18T06:19:37.841Z,104.00
2022-10-18T06:20:37.823Z,100.00
2022-10-18T06:21:37.849Z,84.00
2022-10-18T06:22:37.801Z,76.00
2022-10-18T06:23:37.795Z,64.00
2022-10-18T06:24:37.811Z,64.00
2022-10-18T06:25:37.775Z,64.00
2022-10-18T06:26:37.759Z,68.00
2022-10-18T06:27:37.760Z,72.00
2022-10-18T06:28:37.833Z,84.00
2022-10-18T06:29:37.732Z,100.00
2022-10-18T06:30:37.752Z,112.00
2022-10-18T06:31:37.714Z,124.00
2022-10-18T06:32:37.689Z,124.00
2022-10-18T06:33:37.678Z,128.00
2022-10-18T06:34:37.680Z,132.00
2022-10-18T06:35:37.670Z,144.00
2022-10-18T06:36:37.675Z,148.00
2022-10-18T06:37:37.711Z,164.00
2022-10-18T06:38:37.632Z,200.00
2022-10-18T06:39:37.626Z,236.00
2022-10-18T06:40:37.637Z,268.00
2022-10-18T06:41:37.662Z,296.00
2022-10-18T06:42:37.596Z,304.00
2022-10-18T06:43:37.588Z,300.00
2022-10-18T06:44:37.573Z,328.00
2022-10-18T06:45:37.588Z,384.00
2022-10-18T06:46:37.574Z,480.00
2022-10-18T06:47:37.538Z,572.00
2022-10-18T06:48:37.525Z,684.00
2022-10-18T06:49:37.513Z,852.00
2022-10-18T06:50:37.539Z,1036.00
2022-10-18T06:51:37.877Z,1092.00
2022-10-18T06:52:37.477Z,972.00
2022-10-18T06:53:44.032Z,796.00
2022-10-18T06:54:38.524Z,624.00
2022-10-18T06:55:37.455Z,472.00
2022-10-18T06:56:37.456Z,372.00
2022-10-18T06:57:37.428Z,296.00
2022-10-18T06:58:37.417Z,240.00
2022-10-18T06:59:37.409Z,200.00
2022-10-18T07:00:37.395Z,188.00
2022-10-18T07:01:37.503Z,188.00
2022-10-18T07:02:37.375Z,196.00
2022-10-18T07:03:37.379Z,216.00
2022-10-18T07:04:37.356Z,248.00
2022-10-18T07:05:37.458Z,300.00
2022-10-18T07:06:37.378Z,352.00
2022-10-18T07:07:37.315Z,412.00
2022-10-18T07:08:37.311Z,464.00
2022-10-18T07:09:37.387Z,520.00
2022-10-18T07:10:37.298Z,564.00
2022-10-18T07:11:37.278Z,588.00
2022-10-18T07:12:37.296Z,632.00
2022-10-18T07:13:37.251Z,636.00
2022-10-18T07:14:37.277Z,616.00
2022-10-18T07:15:37.248Z,604.00
2022-10-18T07:16:37.228Z,628.00
2022-10-18T07:17:37.289Z,660.00
2022-10-18T07:18:37.201Z,684.00
2022-10-18T07:19:37.207Z,716.00
2022-10-18T07:20:37.183Z,732.00
2022-10-18T07:21:37.168Z,748.00
2022-10-18T07:22:37.150Z,772.00
2022-10-18T07:23:37.202Z,800.00
2022-10-18T07:24:37.133Z,816.00
2022-10-18T07:25:37.165Z,820.00
2022-10-18T07:26:37.108Z,816.00
2022-10-18T07:27:37.097Z,780.00
2022-10-18T07:28:37.146Z,752.00
2022-10-18T07:29:37.083Z,764.00
2022-10-18T07:30:37.072Z,800.00
2022-10-18T07:31:37.088Z,844.00
2022-10-18T07:32:37.053Z,844.00
2022-10-18T07:33:37.107Z,824.00
2022-10-18T07:34:37.032Z,840.00
2022-10-18T07:35:37.027Z,892.00
2022-10-18T07:36:38.796Z,1128.00
2022-10-18T07:37:36.994Z,1348.00
2022-10-18T07:38:36.977Z,1420.00
2022-10-18T07:39:36.967Z,1420.00
2022-10-18T07:40:36.964Z,1384.00
2022-10-18T07:41:36.994Z,1324.00
2022-10-18T07:42:36.969Z,1296.00
2022-10-18T07:43:36.928Z,1332.00
2022-10-18T07:44:36.915Z,1384.00
2022-10-18T07:46:36.928Z,1400.00
2022-10-18T07:47:37.183Z,1344.00
2022-10-18T07:48:36.913Z,1240.00
2022-10-18T07:49:36.857Z,1152.00
2022-10-18T07:50:37.761Z,1104.00
2022-10-18T07:51:36.882Z,1092.00
2022-10-18T07:52:37.756Z,1084.00
2022-10-18T07:53:36.823Z,1064.00
2022-10-18T07:54:36.827Z,1008.00
2022-10-18T07:55:37.293Z,940.00
2022-10-18T07:56:36.817Z,888.00
2022-10-18T07:57:36.796Z,852.00
2022-10-18T07:58:36.762Z,812.00
2022-10-18T07:59:36.759Z,784.00
2022-10-18T08:00:36.779Z,784.00
2022-10-18T08:01:36.808Z,824.00
2022-10-18T08:02:36.738Z,884.00
2022-10-18T08:03:36.750Z,904.00
2022-10-18T08:04:36.710Z,872.00
2022-10-18T08:05:36.701Z,832.00
2022-10-18T08:06:36.719Z,792.00
2022-10-18T08:07:36.712Z,764.00
2022-10-18T08:08:36.694Z,744.00
2022-10-18T08:09:36.665Z,736.00
2022-10-18T08:10:36.810Z,720.00
2022-10-18T08:11:36.649Z,704.00
2022-10-18T08:12:39.802Z,684.00
2022-10-18T08:13:36.609Z,680.00
2022-10-18T08:14:37.275Z,680.00
2022-10-18T08:15:39.763Z,692.00
2022-10-18T08:16:36.687Z,704.00
2022-10-18T08:17:36.587Z,712.00
2022-10-18T08:18:36.586Z,708.00
2022-10-18T08:19:36.555Z,692.00
2022-10-18T08:20:36.563Z,700.00
2022-10-18T08:21:36.550Z,728.00
2022-10-18T08:22:36.527Z,740.00
2022-10-18T08:23:36.525Z,724.00
2022-10-18T08:24:36.527Z,688.00
2022-10-18T08:26:36.481Z,680.00
2022-10-18T08:27:51.338Z,692.00
2022-10-18T08:28:36.768Z,708.00
2022-10-18T08:29:36.532Z,728.00
2022-10-18T08:30:36.457Z,796.00
2022-10-18T08:31:36.442Z,888.00
2022-10-18T08:32:36.436Z,852.00
2022-10-18T08:33:36.402Z,748.00
2022-10-18T08:34:36.402Z,712.00
2022-10-18T08:35:36.382Z,712.00
2022-10-18T08:36:36.373Z,760.00
2022-10-18T08:37:36.366Z,744.00
2022-10-18T08:38:36.361Z,564.00
2022-10-18T08:39:36.476Z,396.00
2022-10-18T08:40:39.828Z,356.00
2022-10-18T08:41:36.343Z,340.00
2022-10-18T08:42:36.296Z,308.00
2022-10-18T08:44:36.297Z,608.00
2022-10-18T08:45:43.581Z,652.00
2022-10-18T08:46:37.287Z,672.00
2022-10-18T08:47:36.250Z,652.00
2022-10-18T08:48:36.917Z,616.00
2022-10-18T08:49:42.931Z,604.00
2022-10-18T08:50:36.275Z,596.00
2022-10-18T08:51:36.235Z,592.00
2022-10-18T08:52:36.268Z,600.00
2022-10-18T08:53:39.159Z,620.00
2022-10-18T08:54:36.165Z,624.00
2022-10-18T08:55:36.183Z,604.00
2022-10-18T08:56:36.158Z,628.00
2022-10-18T08:57:36.156Z,636.00
2022-10-18T08:58:36.122Z,548.00
2022-10-18T08:59:36.114Z,568.00
2022-10-18T09:00:36.101Z,576.00
2022-10-18T09:01:36.137Z,548.00
2022-10-18T09:02:36.275Z,560.00
2022-10-18T09:03:36.166Z,580.00
2022-10-18T09:04:39.038Z,588.00
2022-10-18T09:05:36.050Z,580.00
2022-10-18T09:06:36.027Z,564.00
2022-10-18T09:07:36.019Z,556.00
2022-10-18T09:08:36.003Z,468.00
2022-10-18T09:09:36.120Z,384.00
2022-10-18T09:10:35.983Z,316.00
2022-10-18T09:11:35.985Z,244.00
2022-10-18T09:12:35.978Z,192.00
2022-10-18T09:13:36.034Z,192.00
2022-10-18T09:14:35.970Z,180.00
2022-10-18T09:15:35.951Z,208.00
2022-10-18T09:16:35.918Z,216.00
2022-10-18T09:17:35.910Z,204.00
2022-10-18T09:18:35.901Z,180.00
2022-10-18T09:19:35.881Z,168.00
2022-10-18T09:20:35.882Z,124.00
2022-10-18T09:21:35.947Z,100.00
2022-10-18T09:22:35.854Z,92.00
2022-10-18T09:23:35.867Z,96.00
2022-10-18T09:24:35.831Z,100.00
2022-10-18T09:25:35.824Z,108.00
2022-10-18T09:26:35.817Z,112.00
2022-10-18T09:27:35.815Z,144.00
2022-10-18T09:28:35.906Z,176.00
2022-10-18T09:29:35.790Z,204.00
2022-10-18T09:30:35.772Z,224.00
2022-10-18T09:31:35.851Z,244.00
2022-10-18T09:32:36.072Z,288.00
2022-10-18T09:33:35.937Z,380.00
2022-10-18T09:34:35.740Z,436.00
2022-10-18T09:35:35.706Z,492.00
2022-10-18T09:36:35.739Z,524.00
2022-10-18T09:37:35.686Z,580.00
2022-10-18T09:38:35.699Z,624.00
2022-10-18T09:39:35.667Z,676.00
2022-10-18T09:40:35.723Z,700.00
2022-10-18T09:41:36.301Z,768.00
2022-10-18T09:42:35.650Z,816.00
2022-10-18T09:43:35.623Z,756.00
2022-10-18T09:44:35.661Z,888.00
2022-10-18T09:45:35.607Z,996.00
2022-10-18T09:46:35.618Z,1024.00
2022-10-18T09:47:35.770Z,1104.00
2022-10-18T09:48:35.581Z,1128.00
2022-10-18T09:49:35.571Z,1132.00
2022-10-18T09:50:35.558Z,1144.00
2022-10-18T09:51:35.538Z,1160.00
2022-10-18T09:52:35.544Z,1168.00
2022-10-18T09:53:35.520Z,1152.00
2022-10-18T09:54:35.516Z,1136.00
2022-10-18T09:55:35.490Z,1112.00
2022-10-18T09:56:39.372Z,1052.00
2022-10-18T09:57:36.472Z,1008.00
2022-10-18T09:58:35.846Z,916.00
2022-10-18T09:59:36.377Z,912.00
2022-10-18T10:00:35.524Z,844.00
2022-10-18T10:01:35.457Z,876.00
2022-10-18T10:02:35.473Z,876.00
2022-10-18T10:03:35.427Z,836.00
2022-10-18T10:04:36.357Z,780.00
2022-10-18T10:05:35.386Z,720.00
2022-10-18T10:06:35.400Z,632.00
2022-10-18T10:07:35.492Z,644.00
2022-10-18T10:08:36.358Z,776.00
2022-10-18T10:09:35.346Z,828.00
2022-10-18T10:10:35.334Z,776.00
2022-10-18T10:11:35.322Z,824.00
2022-10-18T10:12:35.411Z,792.00
2022-10-18T10:13:35.449Z,812.00
2022-10-18T10:14:35.297Z,848.00
2022-10-18T10:15:38.308Z,828.00
2022-10-18T10:16:36.352Z,796.00
2022-10-18T10:17:35.454Z,784.00
2022-10-18T10:18:35.276Z,744.00
2022-10-18T10:19:35.242Z,720.00
2022-10-18T10:20:35.811Z,688.00
2022-10-18T10:21:35.259Z,620.00
2022-10-18T10:22:35.404Z,628.00
2022-10-18T10:23:35.249Z,644.00
2022-10-18T10:24:37.896Z,592.00
2022-10-18T10:25:35.378Z,592.00
2022-10-18T10:26:35.473Z,588.00
2022-10-18T10:27:35.404Z,584.00
2022-10-18T10:28:35.184Z,572.00
2022-10-18T10:29:44.414Z,560.00
2022-10-18T10:30:36.196Z,540.00
2022-10-18T10:31:35.109Z,500.00
2022-10-18T10:32:35.096Z,492.00
2022-10-18T10:33:35.093Z,516.00
2022-10-18T10:34:35.076Z,512.00
2022-10-18T10:35:53.665Z,496.00
2022-10-18T10:36:36.050Z,496.00
2022-10-18T10:37:35.490Z,512.00
2022-10-18T10:38:35.037Z,584.00
2022-10-18T10:39:35.019Z,640.00
2022-10-18T10:40:35.032Z,692.00
2022-10-18T10:41:35.027Z,756.00
2022-10-18T10:42:37.908Z,844.00
2022-10-18T10:43:49.935Z,968.00
2022-10-18T10:44:34.965Z,1092.00
2022-10-18T10:45:35.000Z,1224.00
2022-10-18T10:46:34.950Z,1296.00
2022-10-18T10:47:34.951Z,1296.00
2022-10-18T10:49:14.181Z,1256.00
2022-10-18T10:49:40.299Z,1240.00
2022-10-18T10:50:35.908Z,1252.00
2022-10-18T10:51:35.070Z,1268.00
2022-10-18T10:52:35.091Z,1288.00
2022-10-18T10:53:34.871Z,1344.00
2022-10-18T10:54:37.157Z,1364.00
2022-10-18T10:55:35.779Z,1364.00
2022-10-18T10:56:34.836Z,1312.00
2022-10-18T10:57:34.853Z,1340.00
2022-10-18T10:58:34.813Z,1360.00
2022-10-18T10:59:34.829Z,1380.00
2022-10-18T11:00:34.794Z,1412.00
2022-10-18T11:01:34.809Z,1456.00
2022-10-18T11:02:35.063Z,1452.00
2022-10-18T11:03:34.876Z,1480.00
2022-10-18T11:04:34.750Z,1472.00
2022-10-18T11:05:34.735Z,1368.00
2022-10-18T11:06:34.718Z,1284.00
2022-10-18T11:07:34.729Z,1172.00
2022-10-18T11:08:34.782Z,1248.00
2022-10-18T11:09:34.713Z,1308.00
2022-10-18T11:10:34.687Z,1320.00
2022-10-18T11:11:34.682Z,1312.00
2022-10-18T11:12:34.955Z,1320.00
2022-10-18T11:13:34.652Z,1324.00
2022-10-18T11:14:34.672Z,1280.00
2022-10-18T11:15:34.654Z,1268.00
2022-10-18T11:16:34.621Z,1240.00
2022-10-18T11:17:34.614Z,1408.00
2022-10-18T11:18:41.661Z,1440.00
2022-10-18T11:19:34.577Z,1328.00
2022-10-18T11:20:34.572Z,1456.00
2022-10-18T11:21:34.569Z,1416.00
2022-10-18T11:22:34.813Z,1516.00
2022-10-18T11:23:34.547Z,1412.00
2022-10-18T11:24:34.523Z,1312.00
2022-10-18T11:25:34.521Z,1356.00
2022-10-18T11:26:39.398Z,1592.00
2022-10-18T11:27:34.500Z,1892.00
2022-10-18T11:28:34.512Z,2072.00
2022-10-18T11:29:34.466Z,2120.00
2022-10-18T11:30:34.466Z,2084.00
2022-10-18T11:31:34.475Z,1980.00
2022-10-18T11:32:34.786Z,1796.00
2022-10-18T11:34:03.471Z,1852.00
2022-10-18T11:34:35.429Z,1984.00
2022-10-18T11:35:34.406Z,1936.00
2022-10-18T11:36:36.570Z,1820.00
2022-10-18T11:37:37.474Z,1336.00
2022-10-18T11:38:34.379Z,936.00
2022-10-18T11:39:34.398Z,948.00
2022-10-18T11:40:34.355Z,916.00
2022-10-18T11:41:34.345Z,864.00
2022-10-18T11:42:39.078Z,856.00
2022-10-18T11:44:00.628Z,928.00
2022-10-18T11:44:35.307Z,900.00
2022-10-18T11:45:34.307Z,856.00
2022-10-18T11:46:34.284Z,764.00
2022-10-18T11:47:34.498Z,876.00
2022-10-18T11:48:34.274Z,1048.00
2022-10-18T11:49:34.258Z,1220.00
2022-10-18T11:50:34.239Z,1272.00
2022-10-18T11:51:50.289Z,1388.00
2022-10-18T11:52:35.262Z,1476.00
2022-10-18T11:53:34.230Z,1488.00
2022-10-18T11:54:34.262Z,1344.00
2022-10-18T11:55:34.212Z,1324.00
2022-10-18T11:56:34.185Z,1328.00
2022-10-18T11:57:34.776Z,1380.00
2022-10-18T11:58:34.175Z,1492.00
2022-10-18T11:59:34.149Z,1448.00
2022-10-18T12:00:35.099Z,1448.00
2022-10-18T12:01:34.335Z,1448.00
2022-10-18T12:02:34.668Z,1512.00
2022-10-18T12:03:34.131Z,1580.00
2022-10-18T12:04:34.109Z,1648.00
2022-10-18T12:05:34.094Z,1736.00
2022-10-18T12:06:34.077Z,1728.00
2022-10-18T12:07:34.064Z,1728.00
2022-10-18T12:08:34.078Z,1788.00
2022-10-18T12:09:34.056Z,1928.00
2022-10-18T12:10:45.743Z,1860.00
2022-10-18T12:11:35.040Z,1932.00
2022-10-18T12:12:34.483Z,1484.00
2022-10-18T12:13:33.996Z,1704.00
2022-10-18T12:14:33.992Z,1632.00
2022-10-18T12:15:34.004Z,1688.00
2022-10-18T12:16:50.541Z,1696.00
2022-10-18T12:17:47.663Z,1568.00
2022-10-18T12:18:34.939Z,1436.00
2022-10-18T12:19:33.930Z,1568.00
2022-10-18T12:20:33.924Z,1636.00
2022-10-18T12:21:33.926Z,1560.00
2022-10-18T12:22:34.252Z,1484.00
2022-10-18T12:23:33.888Z,1108.00
2022-10-18T12:24:33.880Z,1536.00
2022-10-18T12:25:33.878Z,1632.00
2022-10-18T12:26:33.852Z,2004.00
2022-10-18T12:27:33.904Z,1424.00
2022-10-18T12:28:33.897Z,1760.00
2022-10-18T12:29:33.826Z,1476.00
2022-10-18T12:30:33.808Z,1572.00
2022-10-18T12:31:33.802Z,1224.00
2022-10-18T12:32:34.233Z,944.00
2022-10-18T12:33:33.789Z,852.00
2022-10-18T12:34:33.771Z,1128.00
2022-10-18T12:35:33.760Z,1212.00
2022-10-18T12:36:34.078Z,1400.00
2022-10-18T12:37:34.243Z,1476.00
2022-10-18T12:38:33.741Z,1572.00
2022-10-18T12:39:43.501Z,1212.00
2022-10-18T12:40:34.869Z,832.00
2022-10-18T12:41:33.711Z,724.00
2022-10-18T12:42:33.782Z,744.00
2022-10-18T12:43:33.692Z,896.00
2022-10-18T12:44:33.662Z,952.00
2022-10-18T12:45:33.712Z,644.00
2022-10-18T12:47:34.185Z,936.00
2022-10-18T12:48:33.618Z,1188.00
2022-10-18T12:49:33.627Z,1736.00
2022-10-18T12:50:33.600Z,2040.00
2022-10-18T12:51:33.585Z,1440.00
2022-10-18T12:52:33.603Z,1444.00
2022-10-18T12:53:33.583Z,2044.00
2022-10-18T12:54:33.601Z,1632.00